Time;durP1;ratioP1;P1;durP2;ratioP2;P2;SDS_P1;SDS_P2;PMS_P1;PMS_P2;Temp;Humidity;BMP_temperature;BMP_pressure;BME280_temperature;BME280_humidity;BME280_pressure;Samples;Min_cycle;Max_cycle;Signal;HPM_P1;HPM_P2
2021/12/02 00:00:35;;;;;;;12.38;4.70;;;8.00;99.90;;;;;;5049068;28;20375;-74
2021/12/02 00:03:03;;;;;;;13.10;4.85;;;7.80;99.90;;;;;;5044599;28;20022;-74
2021/12/02 00:05:29;;;;;;;13.35;4.85;;;7.90;99.90;;;;;;5044236;28;20043;-73
2021/12/02 00:07:55;;;;;;;13.05;4.57;;;7.90;99.90;;;;;;5050213;28;20454;-74
2021/12/02 00:10:26;;;;;;;10.98;4.22;;;8.00;99.90;;;;;;5055116;28;20029;-74
2021/12/02 00:12:54;;;;;;;11.82;3.88;;;7.90;99.90;;;;;;5044711;28;20017;-74
2021/12/02 00:15:23;;;;;;;9.60;3.88;;;7.90;99.90;;;;;;5050231;28;20175;-75
2021/12/02 00:17:57;;;;;;;9.60;3.80;;;7.90;99.90;;;;;;5049721;28;20343;-73
2021/12/02 00:23:29;;;;;;;7.82;3.20;;;8.00;99.90;;;;;;5054436;28;20087;-74
2021/12/02 00:25:59;;;;;;;10.00;2.47;;;8.00;99.90;;;;;;5043679;28;20040;-73
2021/12/02 00:28:26;;;;;;;10.60;3.00;;;7.90;99.90;;;;;;5034175;28;20029;-74
2021/12/02 00:31:00;;;;;;;9.55;3.20;;;7.90;99.90;;;;;;5033721;28;20032;-74
2021/12/02 00:33:29;;;;;;;11.43;2.65;;;7.90;99.90;;;;;;5034510;28;20478;-74
2021/12/02 00:35:55;;;;;;;12.07;2.65;;;8.00;99.90;;;;;;5034230;28;20128;-74
2021/12/02 00:38:23;;;;;;;13.10;3.47;;;8.00;99.90;;;;;;5034417;28;20051;-74
2021/12/02 00:40:50;;;;;;;13.02;2.53;;;8.00;99.90;;;;;;5034529;28;20064;-74
2021/12/02 00:43:16;;;;;;;10.30;2.83;;;8.00;99.90;;;;;;5034159;28;20017;-74
2021/12/02 00:45:44;;;;;;;13.93;3.58;;;8.00;99.90;;;;;;5034017;28;20032;-74
2021/12/02 00:48:12;;;;;;;8.57;2.35;;;8.10;99.90;;;;;;5043212;28;20096;-74
2021/12/02 00:50:41;;;;;;;6.30;2.30;;;8.10;99.90;;;;;;5038775;28;20060;-74
2021/12/02 00:53:07;;;;;;;10.32;1.90;;;8.00;99.90;;;;;;5032832;28;20061;-73
2021/12/02 00:55:38;;;;;;;6.53;1.65;;;7.90;99.90;;;;;;5048615;28;20366;-74
2021/12/02 00:58:05;;;;;;;8.57;1.60;;;7.80;99.90;;;;;;5053274;28;20033;-74
2021/12/02 01:00:32;;;;;;;6.85;1.90;;;7.70;99.90;;;;;;5044529;28;20165;-74
2021/12/02 01:03:02;;;;;;;9.85;2.17;;;7.80;99.90;;;;;;5042481;28;20552;-74
2021/12/02 01:05:29;;;;;;;11.38;2.40;;;7.80;99.90;;;;;;5048835;28;20059;-73
2021/12/02 01:07:58;;;;;;;9.45;2.35;;;7.80;99.90;;;;;;5043662;28;20378;-73
2021/12/02 01:10:24;;;;;;;9.02;2.38;;;7.70;99.90;;;;;;5038672;28;20382;-73
2021/12/02 01:12:50;;;;;;;12.00;2.92;;;7.70;99.90;;;;;;5044796;28;20111;-74
2021/12/02 01:15:16;;;;;;;9.75;2.40;;;7.70;99.90;;;;;;5050340;28;20075;-73
2021/12/02 01:17:42;;;;;;;6.55;2.80;;;7.60;99.90;;;;;;5033630;28;20037;-74
2021/12/02 01:20:09;;;;;;;9.25;2.70;;;7.70;99.90;;;;;;5035804;28;20021;-73
2021/12/02 01:22:37;;;;;;;9.75;2.85;;;7.70;99.90;;;;;;5051657;28;20504;-73
2021/12/02 01:25:06;;;;;;;6.15;2.78;;;7.80;99.90;;;;;;5033512;28;20474;-73
2021/12/02 01:27:35;;;;;;;9.10;3.20;;;7.80;99.90;;;;;;5033475;28;20036;-73
2021/12/02 01:30:04;;;;;;;8.55;3.20;;;7.80;99.90;;;;;;5031792;28;20029;-74
2021/12/02 01:32:33;;;;;;;10.73;3.20;;;7.80;99.90;;;;;;5033370;28;20029;-74
2021/12/02 01:35:04;;;;;;;9.07;3.88;;;7.90;99.90;;;;;;5038222;28;20067;-73
2021/12/02 01:37:30;;;;;;;12.25;3.50;;;7.90;99.90;;;;;;5051046;28;20032;-73
2021/12/02 01:39:57;;;;;;;6.07;3.28;;;7.90;99.90;;;;;;5033136;28;20064;-73
2021/12/02 01:42:24;;;;;;;7.07;3.40;;;7.80;99.90;;;;;;5031763;28;20462;-73
2021/12/02 01:44:53;;;;;;;7.57;3.58;;;7.80;99.90;;;;;;5032821;28;20420;-73
2021/12/02 01:47:23;;;;;;;9.00;4.18;;;7.70;99.90;;;;;;5033299;28;20473;-73
2021/12/02 01:49:53;;;;;;;6.28;3.47;;;7.70;99.90;;;;;;5033668;28;20448;-73
2021/12/02 01:52:26;;;;;;;7.82;3.45;;;7.70;99.90;;;;;;5033249;28;20021;-73
2021/12/02 01:55:09;;;;;;;10.15;3.47;;;7.60;99.90;;;;;;5049904;28;20087;-73
2021/12/02 01:57:35;;;;;;;;;;;7.60;99.90;;;;;;5052664;28;20112;-74
2021/12/02 02:00:19;;;;;;;9.90;4.15;;;7.50;99.90;;;;;;5052874;28;20451;-73
2021/12/02 02:02:46;;;;;;;6.00;3.33;;;7.50;99.90;;;;;;5053127;28;20029;-73
2021/12/02 02:05:14;;;;;;;6.45;3.25;;;7.50;99.90;;;;;;5052923;28;20075;-73
2021/12/02 02:08:03;;;;;;;5.82;3.22;;;7.40;99.90;;;;;;5052885;28;20060;-73
2021/12/02 02:10:33;;;;;;;7.07;3.25;;;7.50;99.90;;;;;;5052726;28;20040;-73
2021/12/02 02:13:03;;;;;;;6.22;2.88;;;7.40;99.90;;;;;;5046277;28;20048;-74
2021/12/02 02:15:30;;;;;;;10.90;3.00;;;7.50;99.90;;;;;;5032825;28;20511;-74
2021/12/02 02:18:05;;;;;;;11.50;3.53;;;7.40;99.90;;;;;;5043084;28;20028;-73
2021/12/02 02:20:44;;;;;;;8.75;3.28;;;7.40;99.90;;;;;;5045976;28;20025;-73
2021/12/02 02:23:12;;;;;;;6.65;2.83;;;7.40;99.90;;;;;;5042380;28;20025;-73
2021/12/02 02:25:41;;;;;;;8.23;2.28;;;7.20;99.90;;;;;;5041983;28;20108;-73
2021/12/02 02:28:07;;;;;;;7.25;2.15;;;7.20;99.90;;;;;;5040276;28;20123;-74
2021/12/02 02:30:33;;;;;;;6.18;2.45;;;7.20;99.90;;;;;;5040934;28;20100;-73
2021/12/02 02:32:59;;;;;;;6.13;2.38;;;7.10;99.90;;;;;;5031996;28;20053;-73
2021/12/02 02:35:25;;;;;;;6.70;1.95;;;7.10;99.90;;;;;;5033946;28;20096;-73
2021/12/02 02:37:51;;;;;;;9.55;3.58;;;7.20;99.90;;;;;;5036954;28;20497;-73
2021/12/02 02:40:17;;;;;;;9.55;1.92;;;7.20;99.90;;;;;;5045175;28;20048;-73
2021/12/02 02:42:48;;;;;;;3.80;1.77;;;7.10;99.90;;;;;;5056713;28;20531;-73
2021/12/02 02:45:15;;;;;;;6.35;1.75;;;7.10;99.90;;;;;;5043034;28;20508;-73
2021/12/02 02:47:41;;;;;;;6.50;1.63;;;7.00;99.90;;;;;;5044955;28;20532;-74
2021/12/02 02:50:12;;;;;;;3.80;1.75;;;6.90;99.90;;;;;;5044872;28;20018;-73
2021/12/02 02:52:37;;;;;;;7.28;1.83;;;7.00;99.90;;;;;;5043772;28;20139;-73
2021/12/02 02:55:04;;;;;;;9.20;1.95;;;7.00;99.90;;;;;;5043716;28;20032;-73
2021/12/02 02:57:37;;;;;;;7.63;2.20;;;6.90;99.90;;;;;;5044925;28;20390;-74
2021/12/02 03:00:11;;;;;;;9.43;1.67;;;7.00;99.90;;;;;;5042700;28;20470;-74
2021/12/02 03:02:51;;;;;;;4.78;2.55;;;6.90;99.90;;;;;;5046042;28;20022;-74
2021/12/02 03:05:33;;;;;;;8.48;2.40;;;7.00;99.90;;;;;;5045582;28;20029;-73
2021/12/02 03:08:11;;;;;;;11.60;2.03;;;7.00;99.90;;;;;;5043705;28;20013;-73
2021/12/02 03:18:23;;;;;;;6.63;1.50;;;6.90;99.90;;;;;;5046582;28;20032;-74
2021/12/02 03:20:49;;;;;;;6.93;2.25;;;6.90;99.90;;;;;;5048511;28;20388;-74
2021/12/02 03:23:15;;;;;;;6.20;1.48;;;6.80;99.90;;;;;;5045427;28;20088;-73
2021/12/02 03:25:40;;;;;;;9.98;1.63;;;6.80;99.90;;;;;;5045927;28;20029;-73
2021/12/02 03:28:06;;;;;;;7.55;2.25;;;6.80;99.90;;;;;;5048465;28;20017;-73
2021/12/02 03:30:32;;;;;;;7.50;1.58;;;6.60;99.90;;;;;;5044058;28;20021;-74
2021/12/02 03:32:58;;;;;;;9.25;2.20;;;6.60;99.90;;;;;;5051680;28;20389;-73
2021/12/02 03:35:23;;;;;;;5.68;1.20;;;6.60;99.90;;;;;;5031335;28;20401;-73
2021/12/02 03:37:49;;;;;;;3.70;1.08;;;6.60;99.90;;;;;;5052785;28;20116;-74
2021/12/02 03:40:15;;;;;;;7.93;1.25;;;6.50;99.90;;;;;;5054457;28;20041;-75
2021/12/02 03:42:48;;;;;;;9.27;1.40;;;6.60;99.90;;;;;;5054661;28;20546;-74
2021/12/02 03:45:14;;;;;;;;;;;6.60;99.90;;;;;;5053763;28;20465;-73
2021/12/02 03:47:40;;;;;;;9.57;3.00;;;6.60;99.90;;;;;;5045744;28;19905;-73
2021/12/02 03:50:06;;;;;;;7.03;1.63;;;6.60;99.90;;;;;;5054722;28;20032;-73
2021/12/02 03:52:32;;;;;;;7.65;1.52;;;6.60;99.90;;;;;;5053239;28;20378;-74
2021/12/02 03:54:57;;;;;;;8.35;1.52;;;6.60;99.90;;;;;;5053476;28;20052;-74
2021/12/02 03:57:23;;;;;;;6.90;1.55;;;6.60;99.90;;;;;;5054420;28;20026;-73
2021/12/02 03:59:49;;;;;;;5.70;1.88;;;6.60;99.90;;;;;;5054581;28;20515;-74
2021/12/02 04:02:14;;;;;;;10.27;1.20;;;6.50;99.90;;;;;;5046508;28;20064;-74
2021/12/02 04:04:40;;;;;;;7.20;1.30;;;6.40;99.90;;;;;;5052615;28;20095;-73
2021/12/02 04:07:06;;;;;;;6.82;1.20;;;6.30;99.90;;;;;;5053881;28;20469;-73
2021/12/02 04:09:39;;;;;;;8.70;1.60;;;6.30;99.90;;;;;;5052009;28;20488;-73
2021/12/02 04:14:42;;;;;;;7.90;1.33;;;6.40;99.90;;;;;;5052326;28;20072;-73
2021/12/02 04:17:09;;;;;;;4.55;1.15;;;6.40;99.90;;;;;;5042569;28;20447;-73
2021/12/02 04:19:37;;;;;;;6.85;1.23;;;6.40;99.90;;;;;;5053217;28;20034;-73
2021/12/02 04:22:03;;;;;;;4.30;1.15;;;6.40;99.90;;;;;;5053250;28;20438;-73
2021/12/02 04:24:29;;;;;;;10.73;2.00;;;6.30;99.90;;;;;;5051980;28;20017;-73
2021/12/02 04:26:55;;;;;;;8.88;1.10;;;6.40;99.90;;;;;;5050013;28;20036;-73
2021/12/02 04:29:24;;;;;;;5.20;1.00;;;6.30;99.90;;;;;;5043334;28;20017;-73
2021/12/02 04:31:50;;;;;;;5.55;1.98;;;6.40;99.90;;;;;;5045192;28;20044;-73
2021/12/02 04:34:16;;;;;;;9.63;1.05;;;6.40;99.90;;;;;;5038227;28;20029;-73
2021/12/02 04:36:42;;;;;;;3.60;0.82;;;6.40;99.90;;;;;;5047214;28;20037;-73
2021/12/02 04:39:08;;;;;;;3.47;0.82;;;6.40;99.90;;;;;;5048508;28;20029;-74
2021/12/02 04:41:34;;;;;;;4.93;0.88;;;6.30;99.90;;;;;;5047839;28;20028;-73
2021/12/02 04:44:00;;;;;;;5.05;1.15;;;6.30;99.90;;;;;;5048302;28;20025;-73
2021/12/02 04:46:26;;;;;;;9.05;1.73;;;6.30;99.90;;;;;;5045169;28;20078;-73
2021/12/02 04:48:52;;;;;;;3.33;0.93;;;6.30;99.90;;;;;;5043483;28;20021;-73
2021/12/02 04:51:17;;;;;;;7.63;1.45;;;6.30;99.90;;;;;;5049533;28;20382;-73
2021/12/02 04:53:43;;;;;;;11.43;1.00;;;6.40;99.90;;;;;;5044830;28;20017;-73
2021/12/02 04:56:09;;;;;;;4.70;1.13;;;6.30;99.90;;;;;;5038138;28;20033;-73
2021/12/02 04:58:34;;;;;;;5.07;0.88;;;6.30;99.90;;;;;;5045773;28;20024;-73
2021/12/02 05:01:00;;;;;;;3.55;0.90;;;6.30;99.90;;;;;;5049479;28;20057;-74
2021/12/02 05:03:26;;;;;;;5.10;1.33;;;6.20;99.90;;;;;;5050256;28;20102;-73
2021/12/02 05:05:51;;;;;;;2.92;0.70;;;6.10;99.90;;;;;;5042890;28;20033;-73
2021/12/02 05:08:17;;;;;;;4.75;1.00;;;6.20;99.90;;;;;;5047413;28;20026;-73
2021/12/02 05:10:43;;;;;;;5.18;0.95;;;6.20;99.90;;;;;;5045835;28;20036;-73
2021/12/02 05:13:08;;;;;;;5.63;1.15;;;6.20;99.90;;;;;;5045536;28;20086;-73
2021/12/02 05:15:34;;;;;;;6.60;1.13;;;6.20;99.90;;;;;;5046247;28;20555;-73
2021/12/02 05:18:00;;;;;;;6.32;1.30;;;6.20;99.90;;;;;;5046111;28;20489;-73
2021/12/02 05:20:25;;;;;;;3.15;1.02;;;6.20;99.90;;;;;;5048073;28;20377;-73
2021/12/02 05:22:51;;;;;;;12.70;1.42;;;6.20;99.90;;;;;;5043326;28;20458;-73
2021/12/02 05:25:17;;;;;;;2.65;1.02;;;6.20;99.90;;;;;;5045521;28;20021;-73
2021/12/02 05:27:43;;;;;;;4.05;1.08;;;6.20;99.90;;;;;;5046131;28;20029;-72
2021/12/02 05:30:09;;;;;;;2.67;1.05;;;6.20;99.90;;;;;;5046562;28;20366;-73
2021/12/02 05:32:36;;;;;;;9.15;1.25;;;6.20;99.90;;;;;;5046779;28;20538;-73
2021/12/02 05:35:03;;;;;;;6.70;1.17;;;6.20;99.90;;;;;;5039844;28;20044;-73
2021/12/02 05:37:29;;;;;;;4.60;0.98;;;6.00;99.90;;;;;;5044767;28;20024;-74
2021/12/02 05:39:54;;;;;;;2.92;0.85;;;6.00;99.90;;;;;;5044255;28;20037;-74
2021/12/02 05:42:20;;;;;;;5.78;0.98;;;5.80;99.90;;;;;;5045901;28;20074;-74
2021/12/02 05:44:46;;;;;;;2.03;0.95;;;5.70;99.90;;;;;;5043859;28;20032;-74
2021/12/02 05:47:12;;;;;;;2.70;0.73;;;5.80;99.90;;;;;;5043973;28;20051;-74
2021/12/02 05:49:38;;;;;;;4.25;1.50;;;5.60;99.90;;;;;;5042884;28;20020;-74
2021/12/02 05:52:04;;;;;;;2.35;0.80;;;5.60;99.90;;;;;;5042919;28;20088;-74
2021/12/02 05:54:29;;;;;;;2.55;0.77;;;5.60;99.90;;;;;;5038352;28;20477;-74
2021/12/02 05:56:55;;;;;;;4.40;0.68;;;5.70;99.90;;;;;;5045724;28;20040;-74
2021/12/02 05:59:21;;;;;;;3.85;0.70;;;5.70;99.90;;;;;;5042208;28;20416;-74
2021/12/02 06:01:46;;;;;;;0.98;0.40;;;5.60;99.90;;;;;;5045885;28;20024;-74
2021/12/02 06:04:12;;;;;;;2.45;0.40;;;5.60;99.90;;;;;;5045863;28;20033;-73
2021/12/02 06:06:38;;;;;;;1.92;0.47;;;5.70;99.90;;;;;;5046102;28;20432;-73
2021/12/02 06:09:05;;;;;;;2.42;0.40;;;5.90;99.90;;;;;;5042739;28;20044;-74
2021/12/02 06:11:31;;;;;;;1.92;0.38;;;6.00;99.90;;;;;;5045805;28;20078;-74
2021/12/02 06:13:56;;;;;;;0.93;0.45;;;5.90;99.90;;;;;;5051198;28;20029;-73
2021/12/02 06:16:22;;;;;;;1.55;0.50;;;5.90;99.90;;;;;;5047069;28;20036;-73
2021/12/02 06:18:48;;;;;;;2.78;0.70;;;5.90;99.90;;;;;;5040641;28;20474;-74
2021/12/02 06:21:14;;;;;;;1.33;0.60;;;6.00;99.90;;;;;;5044896;28;20029;-74
2021/12/02 06:23:41;;;;;;;1.65;0.65;;;5.90;99.90;;;;;;5044405;28;20049;-73
2021/12/02 06:26:08;;;;;;;1.23;0.50;;;5.90;99.90;;;;;;5045422;28;20115;-74
2021/12/02 06:28:34;;;;;;;1.15;0.50;;;5.90;99.90;;;;;;5046052;28;20021;-73
2021/12/02 06:31:02;;;;;;;2.03;0.60;;;5.80;99.90;;;;;;5045728;28;20074;-74
2021/12/02 06:33:29;;;;;;;5.28;0.40;;;5.80;99.90;;;;;;5048734;28;20029;-73
2021/12/02 06:35:55;;;;;;;2.25;0.55;;;5.80;99.90;;;;;;5042006;28;20033;-74
2021/12/02 06:38:21;;;;;;;3.47;2.35;;;5.80;99.90;;;;;;5041284;28;20025;-74
2021/12/02 06:40:46;;;;;;;3.33;0.57;;;5.80;99.90;;;;;;5042327;28;20493;-74
2021/12/02 06:43:15;;;;;;;1.77;0.70;;;5.80;99.90;;;;;;5043321;28;20086;-73
2021/12/02 06:45:41;;;;;;;0.75;0.70;;;5.90;99.90;;;;;;5047824;28;20013;-73
2021/12/02 06:48:07;;;;;;;1.13;0.60;;;5.90;99.90;;;;;;5051096;28;20029;-73
2021/12/02 06:50:35;;;;;;;3.60;0.50;;;5.90;99.90;;;;;;5043279;28;20026;-73
2021/12/02 06:53:01;;;;;;;1.13;1.00;;;5.90;99.90;;;;;;5049929;28;20029;-73
2021/12/02 06:55:26;;;;;;;1.73;0.75;;;6.00;99.90;;;;;;5050118;28;20044;-72
2021/12/02 06:57:52;;;;;;;1.00;0.55;;;6.10;99.90;;;;;;5051454;28;20036;-73
2021/12/02 07:00:21;;;;;;;1.40;0.85;;;6.10;99.90;;;;;;5037990;28;20390;-73
2021/12/02 07:02:47;;;;;;;2.70;0.90;;;6.10;99.90;;;;;;5045785;28;20017;-73
2021/12/02 07:05:15;;;;;;;5.10;1.20;;;6.20;99.90;;;;;;5045456;28;20017;-73
2021/12/02 07:07:41;;;;;;;2.22;1.00;;;6.10;99.90;;;;;;5042016;28;20021;-72
2021/12/02 07:10:17;;;;;;;2.90;0.70;;;6.20;99.90;;;;;;5051621;28;20453;-73
2021/12/02 07:12:45;;;;;;;3.17;0.95;;;6.20;99.90;;;;;;5034844;28;20017;-72
2021/12/02 07:15:19;;;;;;;4.80;1.30;;;6.30;99.90;;;;;;5048702;28;20480;-73
2021/12/02 07:17:46;;;;;;;3.33;1.60;;;6.20;99.90;;;;;;5050754;28;20029;-72
2021/12/02 07:20:15;;;;;;;2.42;1.20;;;6.20;99.90;;;;;;5050698;28;20066;-74
2021/12/02 07:22:41;;;;;;;2.97;1.13;;;6.20;99.90;;;;;;5054274;28;20492;-73
2021/12/02 07:25:08;;;;;;;3.72;1.75;;;6.20;99.90;;;;;;5055269;28;20020;-73
2021/12/02 07:27:33;;;;;;;11.30;2.70;;;6.20;99.90;;;;;;5054714;28;20039;-73
2021/12/02 07:29:59;;;;;;;5.05;2.65;;;6.20;99.90;;;;;;5042693;28;20029;-74
2021/12/02 07:32:28;;;;;;;7.53;2.60;;;6.10;99.90;;;;;;5048187;28;20029;-74
2021/12/02 07:35:00;;;;;;;3.42;2.00;;;6.10;99.90;;;;;;5053545;28;20068;-74
2021/12/02 07:37:27;;;;;;;3.22;1.15;;;5.60;99.90;;;;;;5053974;28;20024;-74
2021/12/02 07:39:53;;;;;;;8.70;1.50;;;5.50;99.90;;;;;;5054729;28;20090;-72
2021/12/02 07:42:19;;;;;;;6.82;1.85;;;5.50;99.90;;;;;;5051825;28;20055;-73
2021/12/02 07:44:46;;;;;;;8.75;2.05;;;5.50;99.90;;;;;;5042912;28;20029;-74
2021/12/02 07:47:13;;;;;;;8.50;1.83;;;5.40;99.90;;;;;;5052936;28;20036;-73
2021/12/02 07:49:39;;;;;;;9.60;2.63;;;5.50;99.90;;;;;;5053901;28;20025;-73
2021/12/02 07:52:07;;;;;;;6.72;2.50;;;5.40;99.90;;;;;;5054861;28;20481;-73
2021/12/02 07:54:33;;;;;;;3.22;2.42;;;5.50;99.90;;;;;;5054400;28;20025;-73
2021/12/02 07:57:00;;;;;;;6.65;3.10;;;5.50;99.90;;;;;;5054804;28;20033;-73
2021/12/02 07:59:26;;;;;;;5.38;2.67;;;5.50;99.90;;;;;;5054307;28;20083;-73
2021/12/02 08:01:55;;;;;;;6.35;2.40;;;5.50;99.90;;;;;;5050847;28;20124;-73
2021/12/02 08:04:21;;;;;;;7.28;2.88;;;5.40;99.90;;;;;;5046817;28;20254;-73
2021/12/02 08:06:47;;;;;;;5.72;2.80;;;5.40;99.90;;;;;;5050910;28;20496;-73
2021/12/02 08:09:14;;;;;;;10.05;1.90;;;5.40;99.90;;;;;;5046459;28;20029;-73
2021/12/02 08:11:40;;;;;;;3.95;1.77;;;5.40;99.90;;;;;;5050144;28;20031;-73
2021/12/02 08:14:12;;;;;;;4.10;1.52;;;5.30;99.90;;;;;;5048973;28;20021;-73
2021/12/02 08:16:38;;;;;;;5.82;1.48;;;5.20;99.90;;;;;;5047604;28;20029;-74
2021/12/02 08:19:03;;;;;;;3.80;1.30;;;5.30;99.90;;;;;;5046380;28;20016;-73
2021/12/02 08:21:29;;;;;;;2.40;1.17;;;5.40;99.90;;;;;;5046812;28;20428;-73
2021/12/02 08:23:55;;;;;;;4.50;1.73;;;5.50;99.90;;;;;;5045606;28;20021;-73
2021/12/02 08:26:20;;;;;;;3.20;1.02;;;5.40;99.90;;;;;;5046516;28;20051;-73
2021/12/02 08:28:46;;;;;;;2.85;0.80;;;5.40;99.90;;;;;;5047258;28;20029;-73
2021/12/02 08:31:12;;;;;;;2.30;0.90;;;5.50;99.90;;;;;;5047795;28;20021;-73
2021/12/02 08:33:38;;;;;;;6.45;2.70;;;5.50;99.90;;;;;;5048338;28;20466;-73
2021/12/02 08:36:04;;;;;;;6.63;1.80;;;5.50;99.90;;;;;;5047749;28;20048;-72
2021/12/02 08:38:32;;;;;;;4.13;1.50;;;5.60;99.90;;;;;;5051415;28;20024;-73
2021/12/02 08:40:59;;;;;;;6.07;1.35;;;5.60;99.90;;;;;;5047381;28;20512;-74
2021/12/02 08:43:25;;;;;;;8.63;1.98;;;5.50;99.90;;;;;;5050197;28;20116;-73
2021/12/02 08:45:51;;;;;;;5.85;2.50;;;5.60;99.90;;;;;;5045291;28;21934;-73
2021/12/02 08:48:17;;;;;;;10.02;1.52;;;5.50;99.90;;;;;;5050717;28;20021;-73
2021/12/02 08:50:45;;;;;;;4.25;2.08;;;5.50;99.90;;;;;;5043312;28;20128;-73
2021/12/02 08:53:11;;;;;;;3.00;1.60;;;5.60;99.90;;;;;;5048278;28;20099;-74
2021/12/02 08:55:38;;;;;;;9.05;2.25;;;5.60;99.90;;;;;;5051711;28;20120;-74
2021/12/02 08:58:04;;;;;;;9.15;4.22;;;5.50;99.90;;;;;;5048254;28;20082;-74
2021/12/02 09:00:36;;;;;;;9.80;3.45;;;5.60;99.90;;;;;;5047913;28;20090;-73
2021/12/02 09:03:06;;;;;;;11.88;4.82;;;5.60;99.90;;;;;;5047968;28;20021;-74
2021/12/02 09:05:32;;;;;;;15.65;10.23;;;5.60;99.90;;;;;;5049953;28;20056;-73
2021/12/02 09:07:58;;;;;;;20.40;11.60;;;5.50;99.90;;;;;;5047256;28;20394;-73
2021/12/02 09:10:26;;;;;;;12.73;8.20;;;5.50;99.90;;;;;;5043312;28;20100;-73
2021/12/02 09:12:51;;;;;;;13.15;6.00;;;5.50;99.90;;;;;;5047393;28;20508;-73
2021/12/02 09:15:18;;;;;;;11.68;6.47;;;5.50;99.90;;;;;;5042240;28;20233;-73
2021/12/02 09:17:44;;;;;;;9.63;5.15;;;5.50;99.90;;;;;;5042459;28;20074;-73
2021/12/02 09:20:15;;;;;;;9.65;4.78;;;5.50;99.90;;;;;;5044286;28;20485;-73
2021/12/02 09:22:42;;;;;;;8.25;5.00;;;5.50;99.90;;;;;;5047916;28;20048;-73
2021/12/02 09:25:09;;;;;;;6.68;3.95;;;5.40;99.90;;;;;;5038592;28;20462;-73
2021/12/02 09:27:34;;;;;;;8.98;3.60;;;5.50;99.90;;;;;;5048394;28;20021;-73
2021/12/02 09:30:01;;;;;;;7.10;3.17;;;5.40;99.90;;;;;;5052236;28;20369;-73
2021/12/02 09:32:27;;;;;;;6.50;3.63;;;5.40;99.90;;;;;;5048399;28;20040;-73
2021/12/02 09:34:53;;;;;;;4.57;2.92;;;5.30;99.90;;;;;;5051661;28;20025;-73
2021/12/02 09:37:19;;;;;;;9.00;2.90;;;5.40;99.90;;;;;;5052387;28;20040;-73
2021/12/02 09:39:44;;;;;;;5.43;2.05;;;5.50;99.90;;;;;;5051789;28;20490;-73
2021/12/02 09:42:10;;;;;;;15.20;2.65;;;5.50;99.90;;;;;;5052607;28;20031;-73
2021/12/02 09:44:39;;;;;;;8.45;2.70;;;5.60;99.90;;;;;;5051070;28;20377;-73
2021/12/02 09:47:06;;;;;;;5.43;2.03;;;5.60;99.90;;;;;;5052932;28;20029;-73
2021/12/02 09:49:33;;;;;;;6.18;2.05;;;5.50;99.90;;;;;;5052682;28;20025;-73
2021/12/02 09:54:36;;;;;;;5.55;1.58;;;5.70;99.90;;;;;;5051525;28;20099;-73
2021/12/02 09:57:04;;;;;;;6.20;2.17;;;5.70;99.90;;;;;;5052146;28;20067;-73
2021/12/02 09:59:47;;;;;;;5.25;1.92;;;5.70;99.90;;;;;;5048522;28;20025;-73
2021/12/02 10:02:16;;;;;;;8.13;2.00;;;5.70;99.90;;;;;;5043036;28;20370;-73
2021/12/02 10:04:54;;;;;;;5.85;2.05;;;5.70;99.90;;;;;;5048360;28;20121;-73
2021/12/02 10:10:29;;;;;;;5.30;2.20;;;5.60;99.90;;;;;;5052172;28;20033;-73
2021/12/02 10:13:14;;;;;;;9.02;2.90;;;5.70;99.90;;;;;;5036631;28;20037;-73
2021/12/02 10:15:49;;;;;;;5.65;1.83;;;6.00;99.90;;;;;;5051048;28;20090;-74
2021/12/02 10:18:17;;;;;;;7.28;1.83;;;6.00;99.90;;;;;;5052324;28;20049;-73
2021/12/02 10:20:45;;;;;;;3.50;1.70;;;6.00;99.90;;;;;;5039852;28;20024;-73
2021/12/02 10:23:46;;;;;;;3.40;1.83;;;6.00;99.90;;;;;;5052113;28;20023;-74
2021/12/02 10:26:06;;;;;;;3.70;2.00;;;6.00;99.90;;;;;;5050635;28;20060;-74
2021/12/02 10:28:41;;;;;;;3.53;2.50;;;6.10;99.90;;;;;;5049865;28;20029;-73
2021/12/02 10:31:08;;;;;;;4.18;2.30;;;6.10;99.90;;;;;;5051785;28;20470;-73
2021/12/02 10:33:35;;;;;;;2.40;2.13;;;6.10;99.90;;;;;;5052062;28;20021;-73
2021/12/02 10:36:08;;;;;;;4.90;2.20;;;6.10;99.90;;;;;;5051744;28;20041;-73
2021/12/02 10:38:43;;;;;;;5.35;2.20;;;6.10;99.90;;;;;;5039658;28;20021;-73
2021/12/02 10:41:21;;;;;;;3.78;2.50;;;6.20;99.90;;;;;;5051891;28;20056;-73
2021/12/02 10:44:14;;;;;;;5.55;3.17;;;6.00;99.90;;;;;;5039698;28;20021;-73
2021/12/02 10:47:00;;;;;;;7.50;3.72;;;5.80;99.90;;;;;;5051665;28;20361;-74
2021/12/02 10:49:32;;;;;;;4.43;3.22;;;5.90;99.90;;;;;;5051974;28;20045;-73
2021/12/02 10:52:01;;;;;;;5.05;3.50;;;5.80;99.90;;;;;;5051446;28;20025;-73
2021/12/02 10:54:35;;;;;;;7.43;4.07;;;5.60;99.90;;;;;;5051717;28;20032;-73
2021/12/02 10:57:12;;;;;;;7.85;4.32;;;5.70;99.90;;;;;;5052161;28;20048;-74
2021/12/02 10:59:42;;;;;;;9.50;4.63;;;5.60;99.90;;;;;;5047078;28;20086;-73
2021/12/02 11:02:30;;;;;;;9.73;4.60;;;5.70;99.90;;;;;;5048370;28;20009;-73
2021/12/02 11:04:59;;;;;;;7.25;4.78;;;5.90;99.90;;;;;;5041724;28;20041;-73
2021/12/02 11:07:34;;;;;;;11.40;4.65;;;5.80;99.90;;;;;;5054902;28;20028;-73
2021/12/02 11:10:15;;;;;;;8.82;4.82;;;5.90;99.90;;;;;;5054246;28;20032;-73
2021/12/02 11:12:45;;;;;;;10.45;5.78;;;5.90;99.90;;;;;;5055189;28;20009;-74
2021/12/02 11:15:25;;;;;;;12.43;6.13;;;6.00;99.90;;;;;;5053244;28;20436;-74
2021/12/02 11:17:52;;;;;;;10.35;6.10;;;5.90;99.90;;;;;;5043092;28;20033;-74
2021/12/02 11:20:21;;;;;;;8.77;5.60;;;6.00;99.90;;;;;;5051012;28;20480;-73
2021/12/02 11:23:08;;;;;;;9.13;5.85;;;6.00;99.90;;;;;;5053929;28;20032;-74
2021/12/02 11:25:40;;;;;;;8.93;5.72;;;6.10;99.90;;;;;;5050811;28;20366;-74
2021/12/02 11:28:08;;;;;;;16.67;6.18;;;6.20;99.90;;;;;;5055510;28;20021;-73
2021/12/02 11:30:36;;;;;;;10.77;6.43;;;6.30;99.90;;;;;;5055175;28;20025;-73
2021/12/02 11:33:04;;;;;;;12.18;5.72;;;6.40;99.90;;;;;;5047206;28;20037;-73
2021/12/02 11:35:43;;;;;;;10.52;5.53;;;6.40;99.90;;;;;;5054579;28;20043;-74
2021/12/02 11:38:20;;;;;;;12.65;5.93;;;6.40;99.90;;;;;;5047264;28;20020;-74
2021/12/02 11:40:55;;;;;;;8.07;5.13;;;6.40;99.90;;;;;;5055149;28;20466;-73
2021/12/02 11:43:33;;;;;;;21.15;7.30;;;6.40;99.90;;;;;;5054862;28;20029;-73
2021/12/02 11:46:01;;;;;;;14.30;6.28;;;6.50;99.90;;;;;;5053930;28;20112;-73
2021/12/02 11:48:34;;;;;;;13.18;5.28;;;6.60;99.90;;;;;;5052103;28;20026;-74
2021/12/02 11:51:05;;;;;;;10.65;4.40;;;6.50;99.90;;;;;;5054504;28;20025;-73
2021/12/02 11:53:31;;;;;;;11.02;4.40;;;6.50;99.90;;;;;;5047924;28;20025;-73
2021/12/02 11:56:01;;;;;;;9.20;3.70;;;6.70;99.90;;;;;;5051410;28;20493;-73
2021/12/02 11:58:27;;;;;;;5.60;3.15;;;6.70;99.90;;;;;;5050246;28;20021;-73
2021/12/02 12:00:54;;;;;;;8.07;3.05;;;6.60;99.90;;;;;;5046707;28;20100;-73
2021/12/02 12:03:29;;;;;;;5.75;2.67;;;6.60;99.90;;;;;;5046602;28;20066;-73
2021/12/02 12:06:07;;;;;;;5.80;2.30;;;6.60;99.90;;;;;;5049341;28;20040;-73
2021/12/02 12:08:39;;;;;;;11.60;2.75;;;6.60;99.90;;;;;;5052223;28;20028;-73
2021/12/02 12:11:20;;;;;;;8.27;2.97;;;6.70;99.90;;;;;;5053233;28;20146;-74
2021/12/02 12:13:48;;;;;;;13.18;3.55;;;6.80;99.90;;;;;;5045326;28;20091;-74
2021/12/02 12:16:34;;;;;;;9.40;2.75;;;6.90;99.90;;;;;;5049182;28;20033;-74
2021/12/02 12:19:17;;;;;;;4.78;2.47;;;6.80;99.90;;;;;;5039886;28;20028;-74
2021/12/02 12:21:49;;;;;;;9.07;1.98;;;6.90;99.90;;;;;;5052038;28;20378;-74
2021/12/02 12:24:15;;;;;;;9.75;2.38;;;6.80;99.90;;;;;;5052386;28;20366;-74
2021/12/02 12:26:46;;;;;;;5.57;1.90;;;6.80;99.90;;;;;;5054027;28;20075;-74
2021/12/02 12:29:14;;;;;;;7.60;1.88;;;6.80;99.90;;;;;;5052779;28;20025;-74
2021/12/02 12:31:50;;;;;;;4.43;1.92;;;6.90;99.90;;;;;;5047855;28;20057;-73
2021/12/02 12:34:51;;;;;;;14.73;2.25;;;6.90;99.90;;;;;;5045138;28;20036;-74
2021/12/02 12:40:20;;;;;;;10.23;2.27;;;6.80;99.90;;;;;;5047909;28;20492;-74
2021/12/02 12:43:02;;;;;;;8.55;2.03;;;6.90;99.90;;;;;;5035555;28;20032;-74
2021/12/02 12:45:39;;;;;;;8.27;2.45;;;6.80;99.90;;;;;;5044882;28;20103;-74
2021/12/02 12:48:08;;;;;;;8.27;2.40;;;6.90;99.90;;;;;;5047574;28;20025;-74
2021/12/02 12:50:40;;;;;;;4.63;2.17;;;6.90;99.90;;;;;;5052596;28;20095;-73
2021/12/02 12:53:12;;;;;;;4.15;1.73;;;7.00;99.90;;;;;;5052285;28;20071;-74
2021/12/02 12:55:41;;;;;;;5.72;1.55;;;6.90;99.90;;;;;;5053324;28;20032;-74
2021/12/02 12:58:10;;;;;;;3.63;1.48;;;6.90;99.90;;;;;;5053609;28;20017;-74
2021/12/02 13:00:41;;;;;;;3.75;1.38;;;6.90;99.90;;;;;;5052436;28;20040;-74
2021/12/02 13:03:13;;;;;;;2.17;1.50;;;6.90;99.90;;;;;;5049044;28;20037;-74
2021/12/02 13:05:52;;;;;;;4.70;1.77;;;6.90;99.90;;;;;;5047450;28;20029;-75
2021/12/02 13:08:20;;;;;;;5.20;1.80;;;6.90;99.90;;;;;;5040411;28;20030;-73
2021/12/02 13:10:55;;;;;;;4.55;1.75;;;7.00;99.90;;;;;;5047253;28;20417;-74
2021/12/02 13:13:32;;;;;;;9.30;2.00;;;7.00;99.90;;;;;;5052811;28;20054;-73
2021/12/02 13:16:16;;;;;;;5.65;1.83;;;7.10;99.90;;;;;;5052056;28;20044;-74
2021/12/02 13:18:45;;;;;;;5.47;2.15;;;7.00;99.90;;;;;;5039722;28;20683;-74
2021/12/02 13:21:32;;;;;;;3.33;1.40;;;7.10;99.90;;;;;;5048613;28;20037;-74
2021/12/02 13:24:03;;;;;;;3.97;1.50;;;7.00;99.90;;;;;;5040959;28;20025;-74
2021/12/02 13:26:39;;;;;;;2.35;1.48;;;7.10;99.90;;;;;;5045131;28;20025;-74